Time;durP1;ratioP1;P1;durP2;ratioP2;P2;SDS_P1;SDS_P2;PMS_P1;PMS_P2;Temp;Humidity;BMP_temperature;BMP_pressure;BME280_temperature;BME280_humidity;BME280_pressure;Samples;Min_cycle;Max_cycle;Signal;HPM_P1;HPM_P2
2023/11/15 00:02:02;;;;;;;;;;;;;;;20.13;54.29;99484.75;4991840;28;6152;-72
2023/11/15 00:04:28;;;;;;;;;;;;;;;20.13;54.35;99479.72;4997239;28;2370;-73
2023/11/15 00:06:55;;;;;;;;;;;;;;;20.11;54.23;99484.69;4994773;28;2164;-73
2023/11/15 00:09:21;;;;;;;;;;;;;;;20.09;54.41;99486.09;4994482;28;2258;-72
2023/11/15 00:11:49;;;;;;;;;;;;;;;20.11;54.35;99487.56;4996876;28;2291;-73
2023/11/15 00:14:15;;;;;;;;;;;;;;;20.09;54.22;99491.13;4996231;28;2426;-73
2023/11/15 00:16:42;;;;;;;;;;;;;;;20.09;54.53;99491.84;4994312;28;2399;-73
2023/11/15 00:19:09;;;;;;;;;;;;;;;20.08;54.43;99490.38;4994646;28;2238;-73
2023/11/15 00:21:35;;;;;;;;;;;;;;;20.08;54.51;99496.13;4999296;28;2292;-72
2023/11/15 00:24:02;;;;;;;;;;;;;;;20.08;54.44;99498.28;4974575;28;2324;-73
2023/11/15 00:26:29;;;;;;;;;;;;;;;20.08;54.25;99496.13;4997025;28;2234;-73
2023/11/15 00:28:57;;;;;;;;;;;;;;;20.05;54.31;99503.25;4997491;28;2284;-73
2023/11/15 00:31:24;;;;;;;;;;;;;;;20.04;54.45;99504.66;4999996;28;6203;-72
2023/11/15 00:33:50;;;;;;;;;;;;;;;20.04;54.76;99495.28;4998592;28;2198;-72
2023/11/15 00:36:19;;;;;;;;;;;;;;;20.02;54.39;99504.59;4997032;28;2270;-73
2023/11/15 00:38:46;;;;;;;;;;;;;;;20.02;54.54;99503.84;4998435;28;2256;-72
2023/11/15 00:41:13;;;;;;;;;;;;;;;20.02;54.26;99504.59;4995871;28;2267;-73
2023/11/15 00:43:39;;;;;;;;;;;;;;;20.05;54.19;99511.84;4997062;28;2258;-73
2023/11/15 00:46:05;;;;;;;;;;;;;;;20.02;54.53;99521.84;4998941;28;2291;-73
2023/11/15 00:48:35;;;;;;;;;;;;;;;20.02;54.55;99518.22;4997060;28;2240;-73
2023/11/15 00:51:01;;;;;;;;;;;;;;;20.05;54.51;99519.75;4996790;28;2190;-72
2023/11/15 00:53:28;;;;;;;;;;;;;;;20.02;54.50;99513.22;4998076;28;2187;-73
2023/11/15 00:55:54;;;;;;;;;;;;;;;20.00;54.48;99518.91;4995075;28;2206;-73
2023/11/15 00:58:22;;;;;;;;;;;;;;;20.01;54.64;99537.59;5000059;28;2295;-72
2023/11/15 01:00:49;;;;;;;;;;;;;;;20.00;54.57;99524.66;4998310;28;6294;-73
2023/11/15 01:03:25;;;;;;;;;;;;;;;19.99;54.56;99534.69;5000268;28;2182;-72
2023/11/15 01:05:55;;;;;;;;;;;;;;;19.99;54.61;99540.41;4996530;28;2294;-72
2023/11/15 01:08:23;;;;;;;;;;;;;;;19.98;54.63;99550.47;4997822;28;3196;-72
2023/11/15 01:10:50;;;;;;;;;;;;;;;19.97;54.60;99543.25;4995613;28;2172;-72
2023/11/15 01:13:17;;;;;;;;;;;;;;;19.96;54.66;99547.53;4995452;28;2396;-72
2023/11/15 01:15:44;;;;;;;;;;;;;;;19.95;54.64;99551.81;4995672;28;2239;-72
2023/11/15 01:18:11;;;;;;;;;;;;;;;19.95;54.68;99556.81;4994804;28;2242;-71
2023/11/15 01:20:38;;;;;;;;;;;;;;;19.95;54.50;99562.56;4998299;28;2290;-72
2023/11/15 01:23:06;;;;;;;;;;;;;;;19.93;54.58;99566.13;4995859;28;2227;-72
2023/11/15 01:25:32;;;;;;;;;;;;;;;19.95;54.77;99563.31;4997654;28;2274;-72
2023/11/15 01:27:59;;;;;;;;;;;;;;;19.97;54.51;99571.97;4998304;28;2313;-72
2023/11/15 01:30:26;;;;;;;;;;;;;;;19.94;54.50;99567.59;4994277;28;6188;-72
2023/11/15 01:32:56;;;;;;;;;;;;;;;19.92;54.65;99564.66;4998963;28;2293;-72
2023/11/15 01:35:23;;;;;;;;;;;;;;;19.94;54.49;99573.34;4997639;28;2321;-72
2023/11/15 01:37:50;;;;;;;;;;;;;;;19.91;54.59;99574.69;4980170;28;2230;-72
2023/11/15 01:40:20;;;;;;;;;;;;;;;19.92;54.54;99576.16;4979306;28;2219;-72
2023/11/15 01:42:47;;;;;;;;;;;;;;;19.91;54.53;99582.59;4992278;28;2704;-72
2023/11/15 01:45:13;;;;;;;;;;;;;;;19.91;54.56;99582.59;4996217;28;2222;-73
2023/11/15 01:47:40;;;;;;;;;;;;;;;19.93;54.60;99585.50;4996959;28;2222;-72
2023/11/15 01:50:10;;;;;;;;;;;;;;;19.88;54.62;99584.66;4992541;28;2244;-73
2023/11/15 01:52:37;;;;;;;;;;;;;;;19.88;54.64;99587.53;4980934;28;2446;-72
2023/11/15 01:55:05;;;;;;;;;;;;;;;19.89;54.68;99594.75;4994714;28;2179;-72
2023/11/15 01:57:31;;;;;;;;;;;;;;;19.87;54.81;99597.56;4997273;28;2350;-72
2023/11/15 01:59:59;;;;;;;;;;;;;;;19.88;54.67;99596.13;4994607;28;2227;-71
2023/11/15 02:02:25;;;;;;;;;;;;;;;19.86;54.96;99596.09;4994167;28;6141;-72
2023/11/15 02:04:52;;;;;;;;;;;;;;;19.88;54.85;99594.03;4997091;28;2175;-72
2023/11/15 02:07:19;;;;;;;;;;;;;;;19.87;54.83;99597.56;4995420;28;2231;-71
2023/11/15 02:09:47;;;;;;;;;;;;;;;19.84;54.81;99604.66;4995372;28;1718;-72
2023/11/15 02:12:26;;;;;;;;;;;;;;;19.87;54.61;99598.28;4996489;28;1632;-71
2023/11/15 02:14:53;;;;;;;;;;;;;;;19.86;54.90;99601.84;4992451;28;2247;-72
2023/11/15 02:17:22;;;;;;;;;;;;;;;19.86;54.80;99610.47;4998237;28;1632;-71
2023/11/15 02:19:49;;;;;;;;;;;;;;;19.86;54.73;99607.59;4997246;28;2127;-72
2023/11/15 02:22:18;;;;;;;;;;;;;;;19.84;54.85;99616.16;4999817;28;2151;-71
2023/11/15 02:24:44;;;;;;;;;;;;;;;19.84;54.81;99627.63;4980841;28;2244;-73
2023/11/15 02:27:11;;;;;;;;;;;;;;;19.84;54.84;99628.38;4997731;28;1553;-71
2023/11/15 02:29:38;;;;;;;;;;;;;;;19.84;54.80;99634.13;4992008;28;2239;-73
2023/11/15 02:32:05;;;;;;;;;;;;;;;19.83;54.86;99635.50;4994414;28;6180;-72
2023/11/15 02:34:33;;;;;;;;;;;;;;;19.82;54.86;99636.19;4995821;28;2309;-72
2023/11/15 02:36:59;;;;;;;;;;;;;;;19.82;54.73;99636.19;4994518;28;2249;-72
2023/11/15 02:39:26;;;;;;;;;;;;;;;19.82;54.77;99647.69;4994234;28;2603;-73
2023/11/15 02:41:52;;;;;;;;;;;;;;;19.81;54.96;99649.84;4995492;28;1938;-72
2023/11/15 02:44:19;;;;;;;;;;;;;;;19.79;54.94;99649.00;4998046;28;1739;-73
2023/11/15 02:46:46;;;;;;;;;;;;;;;19.78;54.85;99647.56;4993580;28;2260;-73
2023/11/15 02:49:12;;;;;;;;;;;;;;;19.81;55.04;99660.56;4997883;28;2216;-73
2023/11/15 02:51:39;;;;;;;;;;;;;;;19.80;55.05;99656.25;4999633;28;1604;-73
2023/11/15 02:54:05;;;;;;;;;;;;;;;19.79;54.89;99663.38;4998932;28;1688;-73
2023/11/15 02:56:32;;;;;;;;;;;;;;;19.80;54.81;99664.84;4995275;28;2196;-73
2023/11/15 02:58:58;;;;;;;;;;;;;;;19.79;54.80;99677.75;4999598;28;1814;-72
2023/11/15 03:01:25;;;;;;;;;;;;;;;19.79;54.97;99677.75;4994285;28;6028;-73
2023/11/15 03:03:51;;;;;;;;;;;;;;;19.76;54.85;99684.84;4994969;28;2246;-73
2023/11/15 03:06:18;;;;;;;;;;;;;;;19.75;54.90;99697.75;4996390;28;2246;-73
2023/11/15 03:08:46;;;;;;;;;;;;;;;19.79;54.98;99700.72;4997616;28;2053;-73
2023/11/15 03:11:13;;;;;;;;;;;;;;;19.78;54.97;99710.75;4993126;28;1645;-73
2023/11/15 03:13:40;;;;;;;;;;;;;;;19.76;54.85;99711.41;4997890;28;1603;-73
2023/11/15 03:16:06;;;;;;;;;;;;;;;19.75;54.87;99712.09;4994357;28;1863;-72
2023/11/15 03:18:33;;;;;;;;;;;;;;;19.75;55.01;99714.97;4995378;28;2341;-72
2023/11/15 03:21:00;;;;;;;;;;;;;;;19.78;54.86;99720.09;4997787;28;2203;-73
2023/11/15 03:23:26;;;;;;;;;;;;;;;19.77;54.83;99729.38;4998365;28;1977;-73
2023/11/15 03:25:53;;;;;;;;;;;;;;;19.75;54.99;99732.94;4998341;28;2243;-72
2023/11/15 03:28:19;;;;;;;;;;;;;;;19.77;55.06;99746.59;4991826;28;2246;-73
2023/11/15 03:30:49;;;;;;;;;;;;;;;19.72;55.00;99745.75;4997559;28;7172;-72
2023/11/15 03:33:17;;;;;;;;;;;;;;;19.72;55.04;99748.63;4994644;28;1867;-73
2023/11/15 03:35:44;;;;;;;;;;;;;;;19.76;54.94;99765.25;4997911;28;2226;-73
2023/11/15 03:38:11;;;;;;;;;;;;;;;19.76;54.87;99765.25;4998195;28;2397;-72
2023/11/15 03:40:37;;;;;;;;;;;;;;;19.77;54.80;99755.22;4997930;28;1792;-73
2023/11/15 03:43:04;;;;;;;;;;;;;;;19.76;54.87;99771.72;4995454;28;3133;-72
2023/11/15 03:45:30;;;;;;;;;;;;;;;19.76;54.84;99774.59;4996516;28;2179;-72
2023/11/15 03:47:57;;;;;;;;;;;;;;;19.79;54.75;99773.28;4994995;28;2202;-73
2023/11/15 03:50:24;;;;;;;;;;;;;;;19.82;54.79;99774.81;4997246;28;2188;-72
2023/11/15 03:52:50;;;;;;;;;;;;;;;19.86;54.52;99777.09;4998316;28;2228;-72
2023/11/15 03:55:17;;;;;;;;;;;;;;;19.83;54.67;99779.13;4997264;28;1652;-72
2023/11/15 03:57:46;;;;;;;;;;;;;;;19.82;54.60;99779.81;4994493;28;2261;-72
2023/11/15 04:00:13;;;;;;;;;;;;;;;19.81;54.79;99789.81;4997428;28;6707;-73
2023/11/15 04:02:39;;;;;;;;;;;;;;;19.80;54.57;99794.13;5002574;28;1927;-65
2023/11/15 04:05:09;;;;;;;;;;;;;;;19.79;54.68;99795.50;5000855;28;2260;-70
2023/11/15 04:07:37;;;;;;;;;;;;;;;19.78;54.58;99797.66;5001074;28;1773;-69
2023/11/15 04:10:03;;;;;;;;;;;;;;;19.78;54.63;99796.91;4999538;28;1609;-69
2023/11/15 04:12:30;;;;;;;;;;;;;;;19.79;54.63;99795.50;4998753;28;2197;-70
2023/11/15 04:14:57;;;;;;;;;;;;;;;19.80;54.56;99802.72;4977997;28;2240;-69
2023/11/15 04:17:24;;;;;;;;;;;;;;;19.81;54.72;99812.81;4998109;28;2362;-69
2023/11/15 04:19:51;;;;;;;;;;;;;;;19.79;54.58;99821.34;5000316;28;2304;-70
2023/11/15 04:22:17;;;;;;;;;;;;;;;19.80;54.62;99823.56;4999520;28;2434;-69
2023/11/15 04:24:44;;;;;;;;;;;;;;;19.81;54.56;99830.03;5000826;28;2219;-69
2023/11/15 04:27:11;;;;;;;;;;;;;;;19.81;54.73;99830.81;4998503;28;2237;-69
2023/11/15 04:29:37;;;;;;;;;;;;;;;19.83;54.49;99850.94;4997779;28;2254;-70
2023/11/15 04:32:04;;;;;;;;;;;;;;;19.82;54.61;99854.50;5000100;28;6087;-70
2023/11/15 04:34:30;;;;;;;;;;;;;;;19.82;54.67;99860.25;4997508;28;2108;-70
2023/11/15 04:36:57;;;;;;;;;;;;;;;19.82;54.54;99863.84;5000590;28;2217;-71
2023/11/15 04:39:24;;;;;;;;;;;;;;;19.82;54.56;99877.50;4999591;28;2263;-70
2023/11/15 04:41:51;;;;;;;;;;;;;;;19.80;54.46;99886.75;4997356;28;3114;-72
2023/11/15 04:44:19;;;;;;;;;;;;;;;19.82;54.60;99894.72;5000191;28;1922;-70
2023/11/15 04:46:46;;;;;;;;;;;;;;;19.81;54.70;99910.47;4999454;28;2433;-71
2023/11/15 04:49:12;;;;;;;;;;;;;;;19.83;54.52;99914.16;5000516;28;1846;-70
2023/11/15 04:51:39;;;;;;;;;;;;;;;19.81;54.65;99913.34;4999187;28;2171;-70
2023/11/15 04:54:06;;;;;;;;;;;;;;;19.82;54.35;99918.44;5000692;28;2323;-71
2023/11/15 04:56:33;;;;;;;;;;;;;;;19.80;54.58;99932.00;4982580;28;2376;-70
2023/11/15 04:59:01;;;;;;;;;;;;;;;19.80;54.68;99932.00;4997016;28;2278;-71
2023/11/15 05:01:27;;;;;;;;;;;;;;;19.83;54.48;99933.53;4984279;28;6271;-73
2023/11/15 05:03:54;;;;;;;;;;;;;;;19.80;54.66;99938.47;4998988;28;2444;-70
2023/11/15 05:06:21;;;;;;;;;;;;;;;19.81;54.50;99937.09;4999105;28;2163;-70
2023/11/15 05:08:48;;;;;;;;;;;;;;;19.81;54.49;99933.47;4998972;28;1665;-71
2023/11/15 05:11:14;;;;;;;;;;;;;;;19.81;54.42;99944.94;4997334;28;2253;-70
2023/11/15 05:13:40;;;;;;;;;;;;;;;19.82;54.40;99947.16;4999097;28;1605;-70
2023/11/15 05:16:07;;;;;;;;;;;;;;;19.82;54.40;99943.56;4999607;28;2220;-70
2023/11/15 05:18:34;;;;;;;;;;;;;;;19.83;54.64;99956.50;4998596;28;2402;-69
2023/11/15 05:21:00;;;;;;;;;;;;;;;19.81;54.49;99962.19;5001530;28;1866;-70
2023/11/15 05:23:27;;;;;;;;;;;;;;;19.83;54.55;99965.13;4994086;28;2317;-70
2023/11/15 05:25:57;;;;;;;;;;;;;;;19.84;54.61;99975.22;4998073;28;2332;-70
2023/11/15 05:28:24;;;;;;;;;;;;;;;19.84;54.61;99967.34;4996348;28;2222;-69
2023/11/15 05:30:50;;;;;;;;;;;;;;;19.84;54.43;99969.50;4996778;28;6090;-70
2023/11/15 05:33:17;;;;;;;;;;;;;;;19.84;54.51;99978.84;4997062;28;2213;-70
2023/11/15 05:35:43;;;;;;;;;;;;;;;19.83;54.63;99983.09;4997317;28;2362;-70
2023/11/15 05:38:10;;;;;;;;;;;;;;;19.84;54.62;99998.94;4997869;28;2425;-71
2023/11/15 05:40:36;;;;;;;;;;;;;;;19.83;54.52;99999.59;4999607;28;1969;-69
2023/11/15 05:43:03;;;;;;;;;;;;;;;19.84;54.66;100012.56;4998566;28;2303;-70
2023/11/15 05:45:31;;;;;;;;;;;;;;;19.83;54.43;100016.84;4998799;28;2230;-70
2023/11/15 05:47:58;;;;;;;;;;;;;;;19.84;54.60;100018.31;4997770;28;2242;-70
2023/11/15 05:50:26;;;;;;;;;;;;;;;19.84;54.41;100030.53;4997765;28;2218;-70
2023/11/15 05:52:53;;;;;;;;;;;;;;;19.91;54.21;100028.63;4996138;28;2224;-69
2023/11/15 05:55:19;;;;;;;;;;;;;;;19.96;54.14;100038.84;4997957;28;2142;-68
2023/11/15 05:57:46;;;;;;;;;;;;;;;19.93;54.47;100043.06;4994983;28;2313;-68
2023/11/15 06:00:19;;;;;;;;;;;;;;;19.92;54.46;100035.09;4998642;28;6109;-68
2023/11/15 06:02:47;;;;;;;;;;;;;;;19.91;54.49;100045.88;4979148;28;3302;-71
2023/11/15 06:05:14;;;;;;;;;;;;;;;19.92;54.39;100058.09;4999621;28;1771;-69
2023/11/15 06:07:41;;;;;;;;;;;;;;;18.68;52.21;100064.16;4999641;28;1657;-73
2023/11/15 06:10:11;;;;;;;;;;;;;;;18.02;52.82;100068.56;4994343;28;3446;-72
2023/11/15 06:12:40;;;;;;;;;;;;;;;17.82;51.61;100063.44;4999207;28;1725;-73
2023/11/15 06:15:14;;;;;;;;;;;;;;;16.88;51.09;100082.72;4999071;28;1851;-74
2023/11/15 06:17:42;;;;;;;;;;;;;;;16.65;51.32;100080.88;4980887;28;1817;-73
2023/11/15 06:20:09;;;;;;;;;;;;;;;16.04;50.97;100092.84;4999825;28;2315;-73
2023/11/15 06:22:40;;;;;;;;;;;;;;;16.36;51.12;100093.03;4989877;28;4618;-72
2023/11/15 06:25:06;;;;;;;;;;;;;;;16.34;50.33;100102.22;4997257;28;2387;-73
2023/11/15 06:27:34;;;;;;;;;;;;;;;16.74;50.33;100099.91;4978014;28;3868;-73
2023/11/15 06:30:01;;;;;;;;;;;;;;;16.28;50.32;100101.91;4997666;28;2361;-73
2023/11/15 06:32:30;;;;;;;;;;;;;;;16.11;50.28;100122.44;4998867;28;6140;-72
2023/11/15 06:34:57;;;;;;;;;;;;;;;15.56;52.09;100105.25;5009075;28;2312;-73
2023/11/15 06:38:15;;;;;;;;;;;;;;;15.98;51.87;100137.47;5037085;27;10347;-73
2023/11/15 06:40:44;;;;;;;;;;;;;;;15.70;52.05;100128.84;5019976;28;7501;-74
2023/11/15 06:43:14;;;;;;;;;;;;;;;16.07;51.52;100140.09;5011315;28;4620;-74
2023/11/15 06:45:40;;;;;;;;;;;;;;;15.24;53.14;100134.22;5014124;28;4061;-73
2023/11/15 06:48:07;;;;;;;;;;;;;;;15.94;52.29;100151.53;5021635;28;1873;-74
2023/11/15 06:50:34;;;;;;;;;;;;;;;15.08;53.61;100151.16;5031765;28;2395;-76
2023/11/15 06:53:01;;;;;;;;;;;;;;;15.34;53.03;100151.16;5013529;28;2388;-71
2023/11/15 06:55:28;;;;;;;;;;;;;;;16.62;50.67;100161.44;5011489;28;2298;-73
2023/11/15 06:58:07;;;;;;;;;;;;;;;17.61;49.61;100161.94;5006479;28;2287;-71
2023/11/15 07:00:34;;;;;;;;;;;;;;;17.98;49.19;100161.53;5012502;28;6020;-71
2023/11/15 07:03:03;;;;;;;;;;;;;;;18.46;48.80;100163.56;5023494;28;2383;-72
2023/11/15 07:05:33;;;;;;;;;;;;;;;18.66;48.44;100170.16;5020344;28;3428;-73
2023/11/15 07:08:00;;;;;;;;;;;;;;;18.77;48.21;100174.25;5023883;28;1888;-72
2023/11/15 07:10:29;;;;;;;;;;;;;;;18.86;47.79;100186.78;5056470;28;1809;-72
2023/11/15 07:13:00;;;;;;;;;;;;;;;18.84;47.44;100196.03;5022823;28;2382;-71
2023/11/15 07:15:26;;;;;;;;;;;;;;;18.90;47.67;100195.53;5026694;28;1694;-71
2023/11/15 07:17:54;;;;;;;;;;;;;;;19.03;47.68;100195.44;5026775;28;2327;-72
2023/11/15 07:20:23;;;;;;;;;;;;;;;19.02;47.10;100198.94;5024351;28;1647;-72
2023/11/15 07:22:49;;;;;;;;;;;;;;;19.10;47.33;100205.00;5015902;28;4268;-72
2023/11/15 07:25:18;;;;;;;;;;;;;;;19.12;46.75;100213.69;5016535;28;4142;-72
2023/11/15 07:27:44;;;;;;;;;;;;;;;19.20;46.75;100219.03;5021669;28;1897;-72
2023/11/15 07:30:12;;;;;;;;;;;;;;;19.43;46.92;100223.56;5023714;28;6033;-72
2023/11/15 07:32:42;;;;;;;;;;;;;;;19.56;46.42;100231.25;5025772;28;2406;-72
2023/11/15 07:35:19;;;;;;;;;;;;;;;19.51;46.01;100235.34;5022626;28;1623;-72
2023/11/15 07:37:56;;;;;;;;;;;;;;;19.19;46.19;100244.13;5024313;28;1920;-73
2023/11/15 07:40:22;;;;;;;;;;;;;;;19.09;46.32;100249.44;5024234;28;1827;-73
2023/11/15 07:42:49;;;;;;;;;;;;;;;19.03;46.71;100257.78;5019938;28;2295;-72
2023/11/15 07:45:18;;;;;;;;;;;;;;;19.07;46.42;100257.97;5027358;28;1846;-74
2023/11/15 07:47:46;;;;;;;;;;;;;;;19.07;46.38;100257.97;5019396;28;2363;-73
2023/11/15 07:50:15;;;;;;;;;;;;;;;19.04;46.33;100270.75;5010921;28;2181;-72
2023/11/15 07:52:43;;;;;;;;;;;;;;;19.05;46.44;100272.22;5008682;28;2362;-74
2023/11/15 07:55:10;;;;;;;;;;;;;;;19.14;46.20;100279.06;5011425;28;2465;-73
2023/11/15 07:57:37;;;;;;;;;;;;;;;19.12;46.16;100281.84;5013269;28;2359;-73
2023/11/15 08:00:11;;;;;;;;;;;;;;;19.16;46.19;100291.34;5011422;28;6119;-72
2023/11/15 08:02:42;;;;;;;;;;;;;;;19.06;46.23;100293.81;5011693;28;2463;-73
2023/11/15 08:05:09;;;;;;;;;;;;;;;19.11;46.12;100304.06;5015611;28;2296;-73
2023/11/15 08:07:37;;;;;;;;;;;;;;;19.16;46.11;100307.84;5012842;28;1616;-74
2023/11/15 08:10:05;;;;;;;;;;;;;;;19.04;45.98;100323.16;5013701;28;2294;-73
2023/11/15 08:12:35;;;;;;;;;;;;;;;19.10;46.00;100319.06;5013640;28;2345;-74
2023/11/15 08:15:03;;;;;;;;;;;;;;;19.18;45.80;100325.88;5014220;28;2376;-74
2023/11/15 08:17:30;;;;;;;;;;;;;;;19.18;45.85;100325.88;5008389;28;2430;-75
2023/11/15 08:19:57;;;;;;;;;;;;;;;19.20;46.17;100328.84;5039391;28;2331;-74
2023/11/15 08:22:23;;;;;;;;;;;;;;;19.19;46.03;100332.34;5009939;28;2339;-74
2023/11/15 08:24:51;;;;;;;;;;;;;;;19.13;46.36;100324.25;5007905;28;2324;-73
2023/11/15 08:27:17;;;;;;;;;;;;;;;19.15;45.99;100347.28;5008546;28;2352;-76
2023/11/15 08:29:44;;;;;;;;;;;;;;;19.12;46.14;100350.72;5008667;28;2358;-75
2023/11/15 08:32:12;;;;;;;;;;;;;;;19.09;46.32;100349.88;5028379;28;6062;-73
2023/11/15 08:34:41;;;;;;;;;;;;;;;19.04;46.58;100360.44;5012999;28;1826;-77
2023/11/15 08:37:08;;;;;;;;;;;;;;;19.06;46.35;100362.69;5008772;28;2351;-73
2023/11/15 08:39:34;;;;;;;;;;;;;;;19.09;46.13;100364.22;5006578;28;2293;-74
2023/11/15 08:42:01;;;;;;;;;;;;;;;19.37;45.98;100369.72;5004751;28;2546;-75
2023/11/15 08:44:28;;;;;;;;;;;;;;;19.83;45.40;100373.09;5006836;28;2338;-75
2023/11/15 08:46:58;;;;;;;;;;;;;;;19.54;45.42;100371.91;5001739;28;2342;-76
2023/11/15 08:49:26;;;;;;;;;;;;;;;19.33;45.91;100387.50;4999246;28;2363;-76
2023/11/15 08:51:52;;;;;;;;;;;;;;;19.35;46.03;100392.59;5001981;28;2652;-76
2023/11/15 08:54:19;;;;;;;;;;;;;;;19.36;46.34;100402.72;4996348;28;2261;-77
2023/11/15 08:56:46;;;;;;;;;;;;;;;19.40;46.72;100391.38;5003016;28;2284;-73
2023/11/15 08:59:13;;;;;;;;;;;;;;;19.39;46.82;100399.25;5003969;28;2199;-74
2023/11/15 09:01:41;;;;;;;;;;;;;;;19.39;47.39;100412.88;5002890;28;6101;-74
2023/11/15 09:04:08;;;;;;;;;;;;;;;19.40;46.98;100402.84;5002631;28;2487;-74
2023/11/15 09:06:35;;;;;;;;;;;;;;;19.39;46.97;100412.88;5004509;28;1600;-74
2023/11/15 09:09:04;;;;;;;;;;;;;;;19.40;47.13;100414.34;5002781;28;2253;-72
2023/11/15 09:11:31;;;;;;;;;;;;;;;19.40;47.46;100422.97;5004693;28;1623;-73
2023/11/15 09:13:59;;;;;;;;;;;;;;;19.42;47.16;100415.19;5000947;28;2155;-72
2023/11/15 09:16:26;;;;;;;;;;;;;;;19.43;47.35;100431.03;5002699;28;2414;-74
2023/11/15 09:18:55;;;;;;;;;;;;;;;19.43;47.28;100436.03;5002978;28;2241;-80
2023/11/15 09:21:22;;;;;;;;;;;;;;;19.06;48.03;100428.69;4996604;28;4203;-77
2023/11/15 09:23:49;;;;;;;;;;;;;;;19.61;47.73;100445.44;5001725;28;2853;-78
2023/11/15 09:26:19;;;;;;;;;;;;;;;19.90;47.29;100434.41;5002227;28;2364;-79
2023/11/15 09:28:46;;;;;;;;;;;;;;;20.04;47.36;100435.75;5000580;28;2349;-77
2023/11/15 09:31:13;;;;;;;;;;;;;;;20.14;47.40;100435.41;4999272;28;6112;-84
2023/11/15 09:33:40;;;;;;;;;;;;;;;20.24;47.58;100443.72;5034169;28;3983;-78
2023/11/15 09:36:07;;;;;;;;;;;;;;;20.17;47.52;100439.09;5003634;28;2365;-75
2023/11/15 09:38:34;;;;;;;;;;;;;;;20.10;48.04;100449.63;5003291;28;2427;-76
2023/11/15 09:41:01;;;;;;;;;;;;;;;20.06;48.07;100452.31;5003464;28;2262;-77
2023/11/15 09:43:28;;;;;;;;;;;;;;;20.08;48.32;100456.03;4998134;28;2352;-75
2023/11/15 09:45:58;;;;;;;;;;;;;;;20.07;48.37;100463.19;5003582;28;2293;-75
2023/11/15 09:48:25;;;;;;;;;;;;;;;20.12;48.64;100460.47;5002893;28;1970;-74
2023/11/15 09:50:52;;;;;;;;;;;;;;;20.15;48.52;100474.25;4999386;28;2461;-73
2023/11/15 09:53:19;;;;;;;;;;;;;;;20.19;48.50;100467.94;5030300;28;2563;-73
2023/11/15 09:55:47;;;;;;;;;;;;;;;20.24;48.69;100472.47;4998992;28;2543;-73
2023/11/15 09:58:13;;;;;;;;;;;;;;;20.28;49.02;100484.88;5004679;28;1926;-73
2023/11/15 10:00:41;;;;;;;;;;;;;;;20.38;49.02;100475.91;5000809;28;6313;-76
2023/11/15 10:03:08;;;;;;;;;;;;;;;20.48;49.03;100484.22;5001884;28;2229;-73
2023/11/15 10:05:35;;;;;;;;;;;;;;;20.52;49.08;100484.34;4997149;28;4115;-74
2023/11/15 10:08:08;;;;;;;;;;;;;;;20.57;49.13;100480.28;5001170;28;2313;-71
2023/11/15 10:10:35;;;;;;;;;;;;;;;20.54;49.02;100487.31;5001550;28;2219;-79
2023/11/15 10:13:03;;;;;;;;;;;;;;;20.60;48.70;100473.22;5001806;28;2259;-81
2023/11/15 10:15:40;;;;;;;;;;;;;;;20.59;48.51;100488.25;4999932;28;2318;-81
2023/11/15 10:18:11;;;;;;;;;;;;;;;20.49;48.72;100486.41;5029173;28;2204;-85
2023/11/15 10:20:38;;;;;;;;;;;;;;;20.46;49.01;100482.00;5000274;28;2244;-82
2023/11/15 10:23:06;;;;;;;;;;;;;;;20.45;49.46;100494.13;5000076;28;2452;-84
2023/11/15 10:25:45;;;;;;;;;;;;;;;20.53;49.34;100490.88;5004360;28;2384;-79
2023/11/15 10:28:13;;;;;;;;;;;;;;;20.60;49.27;100501.25;5002725;28;3968;-77
2023/11/15 10:30:40;;;;;;;;;;;;;;;20.64;49.34;100501.41;5026802;28;6875;-78
2023/11/15 10:33:11;;;;;;;;;;;;;;;20.67;49.26;100494.31;4982900;28;2387;-80
2023/11/15 10:35:43;;;;;;;;;;;;;;;20.68;49.20;100510.19;4995952;28;2201;-77
2023/11/15 10:38:17;;;;;;;;;;;;;;;20.63;49.43;100511.41;4984724;28;1914;-75
2023/11/15 10:40:46;;;;;;;;;;;;;;;20.64;49.37;100513.66;4982748;28;2310;-76
2023/11/15 10:43:13;;;;;;;;;;;;;;;20.66;49.37;100516.59;4986275;28;1625;-78
2023/11/15 10:45:40;;;;;;;;;;;;;;;20.65;49.47;100520.13;4985556;28;2356;-76
2023/11/15 10:48:11;;;;;;;;;;;;;;;20.67;49.70;100525.97;4998240;28;2066;-78
2023/11/15 10:50:41;;;;;;;;;;;;;;;20.54;49.97;100526.84;4984247;28;2208;-78
2023/11/15 10:53:10;;;;;;;;;;;;;;;20.69;49.71;100526.06;4980969;28;2330;-77
2023/11/15 10:55:37;;;;;;;;;;;;;;;20.76;49.60;100527.03;4997991;28;2592;-77
2023/11/15 10:58:04;;;;;;;;;;;;;;;20.79;49.73;100525.72;4982348;28;2231;-79
2023/11/15 11:00:31;;;;;;;;;;;;;;;20.79;49.53;100526.44;5000581;28;6123;-77
2023/11/15 11:02:57;;;;;;;;;;;;;;;20.63;49.49;100540.19;4999788;28;2251;-78
2023/11/15 11:05:44;;;;;;;;;;;;;;;20.68;50.14;100536.84;4999653;28;2335;-76
2023/11/15 11:08:14;;;;;;;;;;;;;;;20.75;50.31;100551.44;4998448;28;2217;-80
2023/11/15 11:10:48;;;;;;;;;;;;;;;20.84;50.06;100548.22;5033272;28;2271;-78
2023/11/15 11:13:18;;;;;;;;;;;;;;;20.89;50.39;100552.75;5032615;28;2269;-78
2023/11/15 11:15:45;;;;;;;;;;;;;;;20.99;49.99;100554.56;5001721;28;2250;-76
2023/11/15 11:18:13;;;;;;;;;;;;;;;21.05;49.92;100557.66;5000291;28;2248;-84
2023/11/15 11:20:42;;;;;;;;;;;;;;;21.07;50.04;100558.50;5002465;28;2157;-84
2023/11/15 11:23:17;;;;;;;;;;;;;;;20.08;47.79;100559.50;5003073;28;2197;-80
2023/11/15 11:25:46;;;;;;;;;;;;;;;20.53;48.07;100572.13;5003732;28;2278;-76
2023/11/15 11:28:13;;;;;;;;;;;;;;;20.76;48.94;100576.69;5004186;28;2244;-75
2023/11/15 11:30:40;;;;;;;;;;;;;;;20.88;49.10;100571.41;5007160;28;6485;-76
2023/11/15 11:33:11;;;;;;;;;;;;;;;20.93;49.16;100566.56;5004984;28;2319;-77
2023/11/15 11:35:43;;;;;;;;;;;;;;;20.99;48.95;100574.69;5004478;28;2281;-77
2023/11/15 11:38:38;;;;;;;;;;;;;;;20.84;49.43;100594.28;5000720;28;2261;-81
2023/11/15 11:41:05;;;;;;;;;;;;;;;20.78;49.61;100590.44;5004523;28;2276;-78
2023/11/15 11:43:32;;;;;;;;;;;;;;;20.78;49.63;100590.44;5035237;28;2219;-76
2023/11/15 11:46:15;;;;;;;;;;;;;;;20.78;49.86;100591.16;5005541;28;2262;-79
2023/11/15 11:48:42;;;;;;;;;;;;;;;20.75;50.06;100595.34;5002855;28;2256;-80
2023/11/15 11:51:09;;;;;;;;;;;;;;;20.75;49.82;100597.47;5002269;28;2481;-78
2023/11/15 11:53:37;;;;;;;;;;;;;;;20.90;50.20;100594.53;5018152;28;2334;-77
2023/11/15 11:56:05;;;;;;;;;;;;;;;21.10;49.80;100591.72;5003290;28;2238;-76
2023/11/15 11:58:33;;;;;;;;;;;;;;;21.16;49.50;100588.31;5003171;28;2384;-76
2023/11/15 12:01:06;;;;;;;;;;;;;;;21.06;49.92;100596.56;5002378;28;6034;-78
2023/11/15 12:03:34;;;;;;;;;;;;;;;20.97;50.46;100591.91;5004378;28;2958;-80
2023/11/15 12:06:11;;;;;;;;;;;;;;;20.91;50.05;100601.78;5004264;28;2245;-82
2023/11/15 12:08:46;;;;;;;;;;;;;;;20.86;50.30;100605.13;5003530;28;2189;-81
2023/11/15 12:11:12;;;;;;;;;;;;;;;20.66;50.43;100605.03;5002053;28;2218;-72
2023/11/15 12:13:42;;;;;;;;;;;;;;;20.76;50.29;100611.22;5001723;28;2263;-77
2023/11/15 12:16:15;;;;;;;;;;;;;;;21.11;49.97;100598.94;5005038;28;2398;-79
2023/11/15 12:19:05;;;;;;;;;;;;;;;21.29;49.81;100596.03;5003585;28;2470;-80
2023/11/15 12:21:33;;;;;;;;;;;;;;;21.40;49.53;100600.06;5005874;28;2505;-79
2023/11/15 12:24:00;;;;;;;;;;;;;;;21.45;49.56;100598.09;5003601;28;2444;-78
2023/11/15 12:26:26;;;;;;;;;;;;;;;21.50;49.40;100608.34;5003637;28;2499;-79
2023/11/15 12:29:13;;;;;;;;;;;;;;;21.51;49.61;100612.72;5005494;28;2431;-77
2023/11/15 12:31:40;;;;;;;;;;;;;;;21.54;49.40;100614.28;5003564;28;6354;-79
2023/11/15 12:34:08;;;;;;;;;;;;;;;21.55;49.50;100604.22;5036208;28;2323;-80
2023/11/15 12:36:36;;;;;;;;;;;;;;;21.30;49.39;100611.91;5003040;28;2375;-73
2023/11/15 12:39:05;;;;;;;;;;;;;;;21.17;50.02;100617.88;5003707;28;2471;-72
2023/11/15 12:41:43;;;;;;;;;;;;;;;21.12;50.24;100611.22;5002487;28;2457;-76
2023/11/15 12:44:12;;;;;;;;;;;;;;;21.10;50.19;100622.66;5002348;28;2331;-77
2023/11/15 12:46:39;;;;;;;;;;;;;;;21.11;50.30;100624.13;5001892;28;2555;-72
2023/11/15 12:49:15;;;;;;;;;;;;;;;21.12;50.26;100625.59;5003433;28;2256;-71
2023/11/15 12:51:45;;;;;;;;;;;;;;;21.15;50.86;100632.91;5000690;28;2401;-72
2023/11/15 12:54:12;;;;;;;;;;;;;;;21.16;50.80;100633.66;5002472;28;2319;-74
2023/11/15 12:56:42;;;;;;;;;;;;;;;21.15;50.69;100638.69;5003420;28;2308;-74